createdAt,value
2024-01-11T00:00:03.914Z,79
2024-01-11T00:01:01.219Z,79
2024-01-11T00:02:01.217Z,79
2024-01-11T00:03:01.139Z,79
2024-01-11T00:04:01.216Z,79
2024-01-11T00:05:03.729Z,79
2024-01-11T00:06:01.374Z,79
2024-01-11T00:07:00.174Z,79
2024-01-11T00:08:00.321Z,79
2024-01-11T00:09:00.203Z,79
2024-01-11T00:10:02.886Z,79
2024-01-11T00:11:00.259Z,79
2024-01-11T00:12:00.251Z,79
2024-01-11T00:13:00.214Z,79
2024-01-11T00:14:00.319Z,79
2024-01-11T00:15:02.841Z,79
2024-01-11T00:16:00.860Z,79
2024-01-11T00:17:00.327Z,79
2024-01-11T00:18:00.576Z,79
2024-01-11T00:19:00.386Z,79
2024-01-11T00:20:03.280Z,79
2024-01-11T00:21:00.321Z,79
2024-01-11T00:22:00.361Z,79
2024-01-11T00:23:00.357Z,79
2024-01-11T00:24:00.422Z,79
2024-01-11T00:25:02.704Z,79
2024-01-11T00:26:00.477Z,79
2024-01-11T00:27:00.354Z,79
2024-01-11T00:28:00.411Z,79
2024-01-11T00:29:00.355Z,79
2024-01-11T00:30:03.158Z,78
2024-01-11T00:31:00.413Z,78
2024-01-11T00:32:00.558Z,78
2024-01-11T00:33:00.662Z,78
2024-01-11T00:34:01.067Z,78
2024-01-11T00:35:02.815Z,78
2024-01-11T00:36:00.505Z,78
2024-01-11T00:37:00.395Z,78
2024-01-11T00:38:00.539Z,78
2024-01-11T00:39:00.443Z,78
2024-01-11T00:40:03.471Z,78
2024-01-11T00:41:00.476Z,78
2024-01-11T00:42:00.541Z,78
2024-01-11T00:43:00.481Z,78
2024-01-11T00:44:00.565Z,78
2024-01-11T00:45:02.823Z,79
2024-01-11T00:46:00.511Z,79
2024-01-11T00:47:00.532Z,79
2024-01-11T00:48:01.075Z,79
2024-01-11T00:49:00.623Z,79
2024-01-11T00:50:04.048Z,79
2024-01-11T00:51:00.541Z,79
2024-01-11T00:52:00.907Z,79
2024-01-11T00:53:00.553Z,79
2024-01-11T00:54:00.697Z,79
2024-01-11T00:55:02.922Z,79
2024-01-11T00:56:00.762Z,79
2024-01-11T00:57:00.612Z,79
2024-01-11T00:58:00.698Z,79
2024-01-11T00:59:00.681Z,79
2024-01-11T01:00:03.416Z,79
2024-01-11T01:01:00.681Z,79
2024-01-11T01:02:00.811Z,79
2024-01-11T01:03:00.664Z,79
2024-01-11T01:04:00.804Z,79
2024-01-11T01:05:03.075Z,79
2024-01-11T01:06:00.909Z,79
2024-01-11T01:07:00.727Z,79
2024-01-11T01:08:00.875Z,79
2024-01-11T01:09:00.714Z,79
2024-01-11T01:10:03.569Z,79
2024-01-11T01:11:00.792Z,79
2024-01-11T01:12:00.864Z,79
2024-01-11T01:13:00.765Z,79
2024-01-11T01:14:00.880Z,79
2024-01-11T01:15:03.285Z,79
2024-01-11T01:16:00.882Z,79
2024-01-11T01:17:00.825Z,79
2024-01-11T01:18:01.207Z,79
2024-01-11T01:19:00.901Z,79
2024-01-11T01:20:04.419Z,79
2024-01-11T01:21:00.852Z,79
2024-01-11T01:22:00.970Z,79
2024-01-11T01:23:00.912Z,79
2024-01-11T01:24:00.970Z,79
2024-01-11T01:25:03.332Z,79
2024-01-11T01:26:02.052Z,79
2024-01-11T01:27:00.898Z,79
2024-01-11T01:28:00.994Z,79
2024-01-11T01:29:01.027Z,79
2024-01-11T01:30:04.029Z,79
2024-01-11T01:31:00.946Z,79
2024-01-11T01:32:01.174Z,79
2024-01-11T01:33:01.107Z,79
2024-01-11T01:34:01.069Z,79
2024-01-11T01:35:03.344Z,79
2024-01-11T01:36:01.055Z,79
2024-01-11T01:37:01.002Z,79
2024-01-11T01:38:01.170Z,79
2024-01-11T01:39:01.010Z,79
2024-01-11T01:40:03.932Z,80
2024-01-11T01:41:01.135Z,80
2024-01-11T01:42:01.129Z,80
2024-01-11T01:43:01.086Z,80
2024-01-11T01:44:01.235Z,80
2024-01-11T01:45:04.720Z,80
2024-01-11T01:46:01.126Z,80
2024-01-11T01:47:01.204Z,80
2024-01-11T01:48:01.380Z,80
2024-01-11T01:49:01.231Z,80
2024-01-11T01:50:03.979Z,80
2024-01-11T01:51:01.117Z,80
2024-01-11T01:52:01.208Z,80
2024-01-11T01:53:01.162Z,80
2024-01-11T01:54:01.283Z,80
2024-01-11T01:55:03.725Z,80
2024-01-11T01:56:01.294Z,80
2024-01-11T01:57:01.183Z,80
2024-01-11T01:58:01.255Z,80
2024-01-11T01:59:01.283Z,80
2024-01-11T02:00:04.306Z,80
2024-01-11T02:01:00.269Z,80
2024-01-11T02:02:00.703Z,80
2024-01-11T02:03:00.324Z,80
2024-01-11T02:04:00.731Z,80
2024-01-11T02:05:03.403Z,80
2024-01-11T02:06:00.721Z,80
2024-01-11T02:07:00.269Z,80
2024-01-11T02:08:00.940Z,80
2024-01-11T02:09:00.298Z,80
2024-01-11T02:10:03.232Z,80
2024-01-11T02:11:00.338Z,80
2024-01-11T02:12:00.897Z,80
2024-01-11T02:13:00.322Z,80
2024-01-11T02:14:01.120Z,80
2024-01-11T02:15:02.698Z,80
2024-01-11T02:16:01.189Z,81
2024-01-11T02:17:00.368Z,81
2024-01-11T02:18:01.127Z,81
2024-01-11T02:19:00.520Z,81
2024-01-11T02:20:03.631Z,81
2024-01-11T02:21:00.377Z,80
2024-01-11T02:22:01.430Z,80
2024-01-11T02:23:00.453Z,80
2024-01-11T02:24:01.581Z,80
2024-01-11T02:25:02.848Z,80
2024-01-11T02:26:00.548Z,80
2024-01-11T02:27:00.458Z,80
2024-01-11T02:28:00.497Z,80
2024-01-11T02:29:00.524Z,80
2024-01-11T02:30:03.446Z,80
2024-01-11T02:31:00.554Z,80
2024-01-11T02:32:00.651Z,80
2024-01-11T02:33:00.707Z,81
2024-01-11T02:34:00.742Z,81
2024-01-11T02:35:02.973Z,81
2024-01-11T02:36:00.647Z,81
2024-01-11T02:37:00.540Z,81
2024-01-11T02:38:00.951Z,81
2024-01-11T02:39:00.568Z,80
2024-01-11T02:40:04.582Z,80
2024-01-11T02:41:00.650Z,80
2024-01-11T02:42:01.009Z,81
2024-01-11T02:43:00.586Z,81
2024-01-11T02:44:00.726Z,81
2024-01-11T02:45:03.011Z,81
2024-01-11T02:46:00.952Z,81
2024-01-11T02:47:00.712Z,81
2024-01-11T02:48:01.024Z,81
2024-01-11T02:49:00.808Z,81
2024-01-11T02:50:05.248Z,81
2024-01-11T02:51:00.703Z,81
2024-01-11T02:52:00.769Z,81
2024-01-11T02:53:00.759Z,81
2024-01-11T02:54:00.910Z,81
2024-01-11T02:55:03.124Z,81
2024-01-11T02:56:03.308Z,81
2024-01-11T02:57:00.750Z,81
2024-01-11T02:58:00.829Z,81
2024-01-11T02:59:00.791Z,81
2024-01-11T03:00:04.402Z,81
2024-01-11T03:01:00.911Z,81
2024-01-11T03:02:00.941Z,81
2024-01-11T03:03:00.850Z,81
2024-01-11T03:04:01.116Z,81
2024-01-11T03:05:03.245Z,81
2024-01-11T03:06:01.021Z,81
2024-01-11T03:07:00.821Z,81
2024-01-11T03:08:00.970Z,81
2024-01-11T03:09:00.885Z,82
2024-01-11T03:10:03.757Z,82
2024-01-11T03:11:00.930Z,82
2024-01-11T03:12:00.938Z,82
2024-01-11T03:13:00.878Z,82
2024-01-11T03:14:01.053Z,82
2024-01-11T03:15:03.291Z,82
2024-01-11T03:16:01.003Z,82
2024-01-11T03:17:00.923Z,82
2024-01-11T03:18:01.111Z,82
2024-01-11T03:19:01.030Z,82
2024-01-11T03:20:05.133Z,82
2024-01-11T03:21:00.968Z,82
2024-01-11T03:22:01.049Z,82
2024-01-11T03:23:01.089Z,82
2024-01-11T03:24:01.106Z,82
2024-01-11T03:25:03.477Z,82
2024-01-11T03:26:01.119Z,82
2024-01-11T03:27:01.026Z,82
2024-01-11T03:28:01.114Z,82
2024-01-11T03:29:01.062Z,82
2024-01-11T03:30:04.177Z,82
2024-01-11T03:31:01.104Z,82
2024-01-11T03:32:01.212Z,82
2024-01-11T03:33:01.243Z,82
2024-01-11T03:34:01.219Z,82
2024-01-11T03:35:04.403Z,82
2024-01-11T03:36:01.195Z,82
2024-01-11T03:37:01.136Z,82
2024-01-11T03:38:01.260Z,82
2024-01-11T03:39:01.168Z,82
2024-01-11T03:40:04.605Z,82
2024-01-11T03:41:01.220Z,82
2024-01-11T03:42:01.285Z,82
2024-01-11T03:43:01.206Z,82
2024-01-11T03:44:01.320Z,82
2024-01-11T03:45:04.362Z,82
2024-01-11T03:46:01.290Z,82
2024-01-11T03:47:00.286Z,82
2024-01-11T03:48:01.150Z,82
2024-01-11T03:49:00.303Z,82
2024-01-11T03:50:03.093Z,82
2024-01-11T03:51:00.327Z,82
2024-01-11T03:52:00.366Z,82
2024-01-11T03:53:00.325Z,82
2024-01-11T03:54:00.376Z,82
2024-01-11T03:55:03.172Z,82
2024-01-11T03:56:00.420Z,82
2024-01-11T03:57:00.311Z,82
2024-01-11T03:58:00.403Z,82
2024-01-11T03:59:00.431Z,82
2024-01-11T04:00:03.321Z,82
2024-01-11T04:01:00.403Z,82
2024-01-11T04:02:01.141Z,82
2024-01-11T04:03:00.409Z,82
2024-01-11T04:04:00.702Z,83
2024-01-11T04:05:03.201Z,83
2024-01-11T04:06:00.617Z,83
2024-01-11T04:07:00.404Z,83
2024-01-11T04:08:00.678Z,83
2024-01-11T04:09:00.431Z,83
2024-01-11T04:10:03.222Z,83
2024-01-11T04:11:00.488Z,83
2024-01-11T04:12:00.581Z,83
2024-01-11T04:13:00.518Z,83
2024-01-11T04:14:00.626Z,83
2024-01-11T04:15:02.875Z,83
2024-01-11T04:16:00.587Z,83
2024-01-11T04:17:00.550Z,83
2024-01-11T04:18:00.844Z,83
2024-01-11T04:19:00.600Z,83
2024-01-11T04:20:03.580Z,83
2024-01-11T04:21:00.599Z,83
2024-01-11T04:22:00.649Z,83
2024-01-11T04:23:00.601Z,83
2024-01-11T04:24:00.705Z,83
2024-01-11T04:25:02.974Z,83
2024-01-11T04:26:00.757Z,83
2024-01-11T04:27:00.631Z,83
2024-01-11T04:28:00.719Z,83
2024-01-11T04:29:00.846Z,83
2024-01-11T04:30:04.281Z,83
2024-01-11T04:31:00.735Z,83
2024-01-11T04:32:00.837Z,83
2024-01-11T04:33:00.985Z,83
2024-01-11T04:34:00.914Z,83
2024-01-11T04:35:03.111Z,83
2024-01-11T04:36:00.855Z,83
2024-01-11T04:37:00.720Z,83
2024-01-11T04:38:00.893Z,83
2024-01-11T04:39:00.747Z,83
2024-01-11T04:40:03.650Z,83
2024-01-11T04:41:00.807Z,83
2024-01-11T04:42:00.879Z,83
2024-01-11T04:43:00.868Z,83
2024-01-11T04:44:00.892Z,83
2024-01-11T04:45:03.356Z,83
2024-01-11T04:46:00.935Z,83
2024-01-11T04:47:00.850Z,83
2024-01-11T04:48:01.037Z,84
2024-01-11T04:49:00.876Z,84
2024-01-11T04:50:03.883Z,84
2024-01-11T04:51:00.881Z,84
2024-01-11T04:52:00.938Z,84
2024-01-11T04:53:00.915Z,84
2024-01-11T04:54:00.973Z,84
2024-01-11T04:55:03.313Z,84
2024-01-11T04:56:01.053Z,84
2024-01-11T04:57:00.888Z,84
2024-01-11T04:58:00.974Z,84
2024-01-11T04:59:00.937Z,84
2024-01-11T05:00:06.809Z,83
2024-01-11T05:01:00.965Z,83
2024-01-11T05:02:01.089Z,83
2024-01-11T05:03:00.953Z,83
2024-01-11T05:04:01.083Z,83
2024-01-11T05:05:03.368Z,83
2024-01-11T05:06:01.182Z,83
2024-01-11T05:07:00.960Z,83
2024-01-11T05:08:01.150Z,83
2024-01-11T05:09:00.995Z,83
2024-01-11T05:10:04.022Z,83
2024-01-11T05:11:01.041Z,83
2024-01-11T05:12:01.110Z,83
2024-01-11T05:13:01.032Z,83
2024-01-11T05:14:01.156Z,83
2024-01-11T05:15:03.467Z,83
2024-01-11T05:16:01.102Z,83
2024-01-11T05:17:01.081Z,83
2024-01-11T05:18:01.356Z,83
2024-01-11T05:19:01.183Z,83
2024-01-11T05:20:03.990Z,83
2024-01-11T05:21:01.139Z,83
2024-01-11T05:22:01.169Z,83
2024-01-11T05:23:01.139Z,83
2024-01-11T05:24:01.272Z,83
2024-01-11T05:25:04.335Z,83
2024-01-11T05:26:01.380Z,84
2024-01-11T05:27:01.166Z,84
2024-01-11T05:28:01.256Z,84
2024-01-11T05:29:01.237Z,84
2024-01-11T05:30:04.132Z,84
2024-01-11T05:31:01.339Z,84
2024-01-11T05:32:01.431Z,84
2024-01-11T05:33:01.457Z,84
2024-01-11T05:34:01.537Z,84
2024-01-11T05:35:02.953Z,84
2024-01-11T05:36:00.361Z,84
2024-01-11T05:37:01.316Z,84
2024-01-11T05:38:00.363Z,84
2024-01-11T05:39:00.293Z,84
2024-01-11T05:40:03.653Z,84
2024-01-11T05:41:00.406Z,84
2024-01-11T05:42:00.420Z,84
2024-01-11T05:43:00.363Z,84
2024-01-11T05:44:00.452Z,84
2024-01-11T05:45:02.728Z,84
2024-01-11T05:46:00.410Z,84
2024-01-11T05:47:00.395Z,84
2024-01-11T05:48:00.914Z,84
2024-01-11T05:49:00.440Z,84
2024-01-11T05:50:03.346Z,84
2024-01-11T05:51:00.416Z,84
2024-01-11T05:52:00.846Z,84
2024-01-11T05:53:00.400Z,84
2024-01-11T05:54:00.489Z,84
2024-01-11T05:55:02.935Z,84
2024-01-11T05:56:00.909Z,84
2024-01-11T05:57:00.470Z,84
2024-01-11T05:58:00.463Z,84
2024-01-11T05:59:00.534Z,84
2024-01-11T06:00:05.035Z,84
2024-01-11T06:01:00.534Z,84
2024-01-11T06:02:00.547Z,84
2024-01-11T06:03:00.467Z,84
2024-01-11T06:04:00.890Z,84
2024-01-11T06:05:02.879Z,84
2024-01-11T06:06:00.751Z,84
2024-01-11T06:07:00.534Z,84
2024-01-11T06:08:00.617Z,84
2024-01-11T06:09:00.531Z,84
2024-01-11T06:10:03.470Z,84
2024-01-11T06:11:00.699Z,84
2024-01-11T06:12:01.000Z,84
2024-01-11T06:13:00.582Z,84
2024-01-11T06:14:00.666Z,85
2024-01-11T06:15:03.024Z,85
2024-01-11T06:16:00.805Z,85
2024-01-11T06:17:00.611Z,85
2024-01-11T06:18:00.789Z,85
2024-01-11T06:19:00.690Z,85
2024-01-11T06:20:04.221Z,85
2024-01-11T06:21:00.627Z,85
2024-01-11T06:22:00.709Z,85
2024-01-11T06:23:00.703Z,85
2024-01-11T06:24:00.845Z,85
2024-01-11T06:25:03.138Z,85
2024-01-11T06:26:00.768Z,85
2024-01-11T06:27:00.680Z,85
2024-01-11T06:28:00.841Z,85
2024-01-11T06:29:00.750Z,85
2024-01-11T06:30:03.905Z,85
2024-01-11T06:31:00.801Z,85
2024-01-11T06:32:00.885Z,85
2024-01-11T06:33:00.921Z,85
2024-01-11T06:34:01.085Z,85
2024-01-11T06:35:03.492Z,85
2024-01-11T06:36:00.916Z,85
2024-01-11T06:37:00.800Z,85
2024-01-11T06:38:00.918Z,85
2024-01-11T06:39:00.822Z,85
2024-01-11T06:40:04.157Z,85
2024-01-11T06:41:00.928Z,85
2024-01-11T06:42:01.027Z,85
2024-01-11T06:43:00.823Z,85
2024-01-11T06:44:01.918Z,85
2024-01-11T06:45:03.251Z,85
2024-01-11T06:46:01.042Z,85
2024-01-11T06:47:00.919Z,85
2024-01-11T06:48:01.120Z,85
2024-01-11T06:49:01.163Z,85
2024-01-11T06:50:04.013Z,85
2024-01-11T06:51:02.405Z,85
2024-01-11T06:52:00.988Z,85
2024-01-11T06:53:00.969Z,85
2024-01-11T06:54:01.032Z,85
2024-01-11T06:55:03.345Z,85
2024-01-11T06:56:01.077Z,85
2024-01-11T06:57:00.963Z,85
2024-01-11T06:58:01.052Z,85
2024-01-11T06:59:01.024Z,85
2024-01-11T07:00:04.069Z,85
2024-01-11T07:01:01.042Z,85
2024-01-11T07:02:01.202Z,85
2024-01-11T07:03:01.010Z,85
2024-01-11T07:04:04.252Z,85
2024-01-11T07:05:03.603Z,85
2024-01-11T07:06:01.437Z,85
2024-01-11T07:07:01.050Z,85
2024-01-11T07:08:01.573Z,85
2024-01-11T07:09:01.057Z,85
2024-01-11T07:10:05.891Z,85
2024-01-11T07:11:01.149Z,85
2024-01-11T07:12:01.953Z,85
2024-01-11T07:13:01.090Z,85
2024-01-11T07:14:02.060Z,85
2024-01-11T07:15:05.642Z,85
2024-01-11T07:16:01.232Z,85
2024-01-11T07:17:01.171Z,85
2024-01-11T07:18:02.407Z,85
2024-01-11T07:19:01.276Z,85
2024-01-11T07:20:05.095Z,85
2024-01-11T07:21:01.219Z,85
2024-01-11T07:22:04.417Z,85
2024-01-11T07:23:01.232Z,85
2024-01-11T07:24:01.347Z,85
2024-01-11T07:25:02.759Z,85
2024-01-11T07:26:16.100Z,85
2024-01-11T07:27:00.242Z,85
2024-01-11T07:28:00.349Z,85
2024-01-11T07:29:00.292Z,85
2024-01-11T07:30:03.237Z,86
2024-01-11T07:31:00.543Z,86
2024-01-11T07:32:00.467Z,86
2024-01-11T07:33:00.494Z,86
2024-01-11T07:34:00.546Z,86
2024-01-11T07:35:02.713Z,86
2024-01-11T07:36:00.525Z,86
2024-01-11T07:37:00.340Z,86
2024-01-11T07:38:00.791Z,86
2024-01-11T07:39:00.344Z,86
2024-01-11T07:40:03.713Z,86
2024-01-11T07:41:00.362Z,86
2024-01-11T07:42:00.414Z,86
2024-01-11T07:43:00.364Z,86
2024-01-11T07:44:00.456Z,86
2024-01-11T07:45:02.745Z,86
2024-01-11T07:46:00.651Z,86
2024-01-11T07:47:02.219Z,86
2024-01-11T07:48:00.797Z,86
2024-01-11T07:49:00.724Z,86
2024-01-11T07:50:03.301Z,86
2024-01-11T07:51:00.460Z,86
2024-01-11T07:52:00.790Z,86
2024-01-11T07:53:00.473Z,86
2024-01-11T07:54:00.529Z,86
2024-01-11T07:55:03.607Z,86
2024-01-11T07:56:00.655Z,86
2024-01-11T07:57:00.512Z,86
2024-01-11T07:58:00.849Z,86
2024-01-11T07:59:00.605Z,86
2024-01-11T08:00:03.613Z,86
2024-01-11T08:01:00.534Z,86
2024-01-11T08:02:00.631Z,86
2024-01-11T08:03:00.683Z,86
2024-01-11T08:04:00.662Z,86
2024-01-11T08:05:03.072Z,86
2024-01-11T08:06:00.797Z,86
2024-01-11T08:07:00.584Z,86
2024-01-11T08:08:00.638Z,86
2024-01-11T08:09:00.663Z,86
2024-01-11T08:10:04.127Z,86
2024-01-11T08:11:00.656Z,86
2024-01-11T08:12:00.861Z,86
2024-01-11T08:13:00.656Z,86
2024-01-11T08:14:00.747Z,86
2024-01-11T08:15:03.149Z,86
2024-01-11T08:16:00.785Z,86
2024-01-11T08:17:00.694Z,86
2024-01-11T08:18:00.796Z,85
2024-01-11T08:19:00.699Z,85
2024-01-11T08:20:03.804Z,85
2024-01-11T08:21:00.710Z,85
2024-01-11T08:22:00.795Z,85
2024-01-11T08:23:00.772Z,85
2024-01-11T08:24:03.368Z,85
2024-01-11T08:25:03.290Z,85
2024-01-11T08:26:00.794Z,85
2024-01-11T08:27:00.726Z,85
2024-01-11T08:28:00.847Z,85
2024-01-11T08:29:00.814Z,85
2024-01-11T08:30:03.606Z,84
2024-01-11T08:31:00.923Z,84
2024-01-11T08:32:01.114Z,84
2024-01-11T08:33:01.002Z,84
2024-01-11T08:34:01.061Z,84
2024-01-11T08:35:03.364Z,84
2024-01-11T08:36:00.937Z,82
2024-01-11T08:37:00.851Z,82
2024-01-11T08:38:00.991Z,81
2024-01-11T08:39:00.879Z,81
2024-01-11T08:40:03.850Z,81
2024-01-11T08:41:00.879Z,80
2024-01-11T08:42:00.951Z,80
2024-01-11T08:43:00.909Z,79
2024-01-11T08:44:01.011Z,79
2024-01-11T08:45:03.413Z,79
2024-01-11T08:46:01.013Z,79
2024-01-11T08:47:00.959Z,79
2024-01-11T08:48:01.100Z,79
2024-01-11T08:49:01.032Z,79
2024-01-11T08:50:03.953Z,79
2024-01-11T08:51:01.050Z,79
2024-01-11T08:52:01.077Z,79
2024-01-11T08:53:00.989Z,79
2024-01-11T08:54:01.053Z,79
2024-01-11T08:55:03.433Z,78
2024-01-11T08:56:01.126Z,78
2024-01-11T08:57:01.001Z,78
2024-01-11T08:58:01.131Z,78
2024-01-11T08:59:01.063Z,78
2024-01-11T09:00:04.062Z,78
2024-01-11T09:01:01.095Z,77
2024-01-11T09:02:10.624Z,77
2024-01-11T09:03:01.140Z,77
2024-01-11T09:04:01.197Z,77
2024-01-11T09:05:04.252Z,77
2024-01-11T09:06:01.329Z,77
2024-01-11T09:07:01.172Z,77
2024-01-11T09:08:01.224Z,76
2024-01-11T09:09:01.162Z,76
2024-01-11T09:10:03.936Z,76
2024-01-11T09:11:01.123Z,75
2024-01-11T09:12:01.234Z,75
2024-01-11T09:13:01.181Z,75
2024-01-11T09:14:01.358Z,75
2024-01-11T09:15:03.867Z,75
2024-01-11T09:16:00.246Z,73
2024-01-11T09:17:00.257Z,73
2024-01-11T09:18:00.573Z,73
2024-01-11T09:19:00.307Z,73
2024-01-11T09:20:03.026Z,73
2024-01-11T09:21:00.365Z,73
2024-01-11T09:22:00.357Z,73
2024-01-11T09:23:00.293Z,73
2024-01-11T09:24:00.351Z,73
2024-01-11T09:25:02.857Z,73
2024-01-11T09:26:00.873Z,73
2024-01-11T09:27:00.298Z,73
2024-01-11T09:28:00.370Z,72
2024-01-11T09:29:00.403Z,72
2024-01-11T09:30:03.319Z,72
2024-01-11T09:31:00.530Z,71
2024-01-11T09:32:00.532Z,71
2024-01-11T09:33:00.518Z,71
2024-01-11T09:34:00.548Z,71
2024-01-11T09:35:02.848Z,71
2024-01-11T09:36:00.500Z,71
2024-01-11T09:37:00.804Z,71
2024-01-11T09:38:00.482Z,71
2024-01-11T09:39:00.460Z,71
2024-01-11T09:40:03.254Z,71
2024-01-11T09:41:00.401Z,70
2024-01-11T09:42:00.529Z,70
2024-01-11T09:43:00.407Z,70
2024-01-11T09:44:00.646Z,70
2024-01-11T09:45:02.901Z,70
2024-01-11T09:46:00.538Z,69
2024-01-11T09:47:00.498Z,69
2024-01-11T09:48:00.706Z,69
2024-01-11T09:49:00.497Z,69
2024-01-11T09:50:03.434Z,69
2024-01-11T09:51:00.503Z,69
2024-01-11T09:52:00.604Z,69
2024-01-11T09:53:00.530Z,69
2024-01-11T09:54:00.898Z,70
2024-01-11T09:55:02.952Z,70
2024-01-11T09:56:00.604Z,70
2024-01-11T09:57:00.549Z,70
2024-01-11T09:58:00.933Z,70
2024-01-11T09:59:00.646Z,69
2024-01-11T10:00:04.402Z,69
2024-01-11T10:01:00.709Z,69
2024-01-11T10:02:00.670Z,69
2024-01-11T10:03:00.672Z,69
2024-01-11T10:04:00.726Z,69
2024-01-11T10:05:03.157Z,69
2024-01-11T10:06:00.914Z,69
2024-01-11T10:07:00.604Z,69
2024-01-11T10:08:00.728Z,69
2024-01-11T10:09:00.660Z,69
2024-01-11T10:10:03.678Z,69
2024-01-11T10:11:00.720Z,69
2024-01-11T10:12:00.891Z,69
2024-01-11T10:13:00.680Z,68
2024-01-11T10:14:00.823Z,68
2024-01-11T10:15:03.154Z,68
2024-01-11T10:16:00.798Z,68
2024-01-11T10:17:00.722Z,68
2024-01-11T10:18:00.962Z,68
2024-01-11T10:19:01.045Z,69
2024-01-11T10:20:03.917Z,69
2024-01-11T10:21:00.936Z,69
2024-01-11T10:22:00.843Z,69
2024-01-11T10:23:00.774Z,69
2024-01-11T10:24:00.826Z,69
2024-01-11T10:25:03.156Z,69
2024-01-11T10:26:00.913Z,69
2024-01-11T10:27:00.813Z,69
2024-01-11T10:28:00.904Z,69
2024-01-11T10:29:00.860Z,69
2024-01-11T10:30:04.727Z,69
2024-01-11T10:31:00.887Z,69
2024-01-11T10:32:00.977Z,68
2024-01-11T10:33:01.063Z,68
2024-01-11T10:34:01.036Z,68
2024-01-11T10:35:03.578Z,68
2024-01-11T10:36:00.947Z,68
2024-01-11T10:37:00.896Z,68
2024-01-11T10:38:01.030Z,68
2024-01-11T10:39:00.902Z,68
2024-01-11T10:40:03.903Z,68
2024-01-11T10:41:00.978Z,68
2024-01-11T10:42:03.530Z,68
2024-01-11T10:43:00.929Z,68
2024-01-11T10:44:01.033Z,68
2024-01-11T10:45:03.923Z,68
2024-01-11T10:46:01.082Z,68
2024-01-11T10:47:01.023Z,68
2024-01-11T10:48:03.711Z,68
2024-01-11T10:49:01.051Z,68
2024-01-11T10:50:04.098Z,68
2024-01-11T10:51:01.038Z,68
2024-01-11T10:52:01.328Z,68
2024-01-11T10:53:01.032Z,68
2024-01-11T10:54:02.372Z,68
2024-01-11T10:55:04.301Z,68
2024-01-11T10:56:01.273Z,68
2024-01-11T10:57:01.070Z,68
2024-01-11T10:58:01.216Z,68
2024-01-11T10:59:01.123Z,68
2024-01-11T11:00:04.295Z,68
2024-01-11T11:01:01.120Z,68
2024-01-11T11:02:01.236Z,67
2024-01-11T11:03:01.395Z,67
2024-01-11T11:04:01.260Z,67
2024-01-11T11:05:04.053Z,67
2024-01-11T11:06:01.354Z,67
2024-01-11T11:07:00.218Z,67
2024-01-11T11:08:00.263Z,67
2024-01-11T11:09:00.193Z,67
2024-01-11T11:10:02.909Z,67
2024-01-11T11:11:00.257Z,67
2024-01-11T11:12:00.837Z,67
2024-01-11T11:13:00.269Z,67
2024-01-11T11:14:00.440Z,67
2024-01-11T11:15:02.880Z,66
2024-01-11T11:16:02.210Z,66
2024-01-11T11:17:00.268Z,66
2024-01-11T11:18:00.560Z,66
2024-01-11T11:19:00.552Z,66
2024-01-11T11:20:03.346Z,66
2024-01-11T11:21:00.387Z,66
2024-01-11T11:22:00.432Z,66
2024-01-11T11:23:00.358Z,66
2024-01-11T11:24:00.424Z,66
2024-01-11T11:25:02.832Z,66
2024-01-11T11:26:00.925Z,66
2024-01-11T11:27:00.390Z,66
2024-01-11T11:28:01.149Z,66
2024-01-11T11:29:00.398Z,66
2024-01-11T11:30:03.254Z,66
2024-01-11T11:31:00.432Z,66
2024-01-11T11:32:00.557Z,67
2024-01-11T11:33:00.515Z,67
2024-01-11T11:34:03.690Z,67
2024-01-11T11:35:02.940Z,67
2024-01-11T11:36:00.514Z,67
2024-01-11T11:37:00.443Z,67
2024-01-11T11:38:00.551Z,67
2024-01-11T11:39:00.507Z,67
2024-01-11T11:40:03.730Z,66
2024-01-11T11:41:00.547Z,66
2024-01-11T11:42:00.569Z,66
2024-01-11T11:43:00.536Z,66
2024-01-11T11:44:00.625Z,66
2024-01-11T11:45:03.024Z,65
2024-01-11T11:46:03.772Z,65
2024-01-11T11:47:00.577Z,65
2024-01-11T11:48:00.788Z,65
2024-01-11T11:49:00.714Z,65
2024-01-11T11:50:04.373Z,65
2024-01-11T11:51:00.600Z,65
2024-01-11T11:52:00.715Z,65
2024-01-11T11:53:00.652Z,65
2024-01-11T11:54:00.871Z,65
2024-01-11T11:55:03.055Z,65
2024-01-11T11:56:00.738Z,65
2024-01-11T11:57:00.752Z,65
2024-01-11T11:58:00.901Z,65
2024-01-11T11:59:00.664Z,65
2024-01-11T12:00:03.689Z,65
2024-01-11T12:01:00.762Z,65
2024-01-11T12:02:00.749Z,65
2024-01-11T12:03:00.814Z,64
2024-01-11T12:04:00.817Z,64
2024-01-11T12:05:03.308Z,63
2024-01-11T12:06:00.849Z,63
2024-01-11T12:07:00.830Z,63
2024-01-11T12:08:00.823Z,63
2024-01-11T12:09:00.800Z,63
2024-01-11T12:10:03.775Z,63
2024-01-11T12:11:00.753Z,62
2024-01-11T12:12:11.113Z,62
2024-01-11T12:13:00.780Z,62
2024-01-11T12:14:00.886Z,62
2024-01-11T12:15:03.339Z,62
2024-01-11T12:16:00.880Z,62
2024-01-11T12:17:00.788Z,62
2024-01-11T12:18:01.054Z,61
2024-01-11T12:19:00.901Z,61
2024-01-11T12:20:03.933Z,61
2024-01-11T12:21:00.843Z,61
2024-01-11T12:22:00.987Z,61
2024-01-11T12:23:00.846Z,61
2024-01-11T12:24:00.971Z,61
2024-01-11T12:25:03.403Z,61
2024-01-11T12:26:00.953Z,61
2024-01-11T12:27:00.959Z,61
2024-01-11T12:28:01.023Z,61
2024-01-11T12:29:01.016Z,61
2024-01-11T12:30:03.982Z,61
2024-01-11T12:31:00.975Z,61
2024-01-11T12:32:01.249Z,61
2024-01-11T12:33:01.213Z,61
2024-01-11T12:34:01.268Z,61
2024-01-11T12:35:03.551Z,61
2024-01-11T12:36:01.089Z,61
2024-01-11T12:37:00.961Z,61
2024-01-11T12:38:01.153Z,61
2024-01-11T12:39:01.156Z,61
2024-01-11T12:40:04.218Z,61
2024-01-11T12:41:01.123Z,61
2024-01-11T12:42:01.102Z,61
2024-01-11T12:43:01.068Z,61
2024-01-11T12:44:01.225Z,61
2024-01-11T12:45:04.517Z,61
2024-01-11T12:46:01.172Z,60
2024-01-11T12:47:01.115Z,60
2024-01-11T12:48:01.410Z,61
2024-01-11T12:49:01.178Z,61
2024-01-11T12:50:03.859Z,61
2024-01-11T12:51:10.700Z,61
2024-01-11T12:52:01.236Z,61
2024-01-11T12:53:01.147Z,61
2024-01-11T12:54:01.234Z,61
2024-01-11T12:55:03.930Z,61
2024-01-11T12:56:08.556Z,61
2024-01-11T12:57:01.350Z,61
2024-01-11T12:58:00.261Z,62
2024-01-11T12:59:00.210Z,62
2024-01-11T13:00:03.034Z,62
2024-01-11T13:01:00.232Z,62
2024-01-11T13:02:00.262Z,62
2024-01-11T13:03:00.269Z,62
2024-01-11T13:04:00.429Z,62
2024-01-11T13:05:02.862Z,62
2024-01-11T13:06:00.595Z,62
2024-01-11T13:07:00.245Z,62
2024-01-11T13:08:00.883Z,62
2024-01-11T13:09:00.386Z,61
2024-01-11T13:10:03.685Z,61
2024-01-11T13:11:00.296Z,60
2024-01-11T13:12:00.869Z,60
2024-01-11T13:13:03.521Z,60
2024-01-11T13:14:00.400Z,60
2024-01-11T13:15:02.812Z,60
2024-01-11T13:16:00.884Z,60
2024-01-11T13:17:00.340Z,60
2024-01-11T13:18:00.501Z,60
2024-01-11T13:19:00.432Z,60
2024-01-11T13:20:03.376Z,60
2024-01-11T13:21:00.507Z,60
2024-01-11T13:22:00.522Z,60
2024-01-11T13:23:00.392Z,60
2024-01-11T13:24:00.840Z,60
2024-01-11T13:25:02.832Z,60
2024-01-11T13:26:07.879Z,60
2024-01-11T13:27:00.570Z,60
2024-01-11T13:28:00.929Z,60
2024-01-11T13:29:00.409Z,60
2024-01-11T13:30:03.467Z,60
2024-01-11T13:31:00.567Z,60
2024-01-11T13:32:02.866Z,60
2024-01-11T13:33:00.796Z,60
2024-01-11T13:34:00.676Z,60
2024-01-11T13:35:02.993Z,60
2024-01-11T13:36:00.977Z,60
2024-01-11T13:37:00.485Z,60
2024-01-11T13:38:00.617Z,60
2024-01-11T13:39:00.544Z,60
2024-01-11T13:40:04.402Z,60
2024-01-11T13:41:00.512Z,60
2024-01-11T13:42:00.630Z,60
2024-01-11T13:43:00.564Z,60
2024-01-11T13:44:00.977Z,60
2024-01-11T13:45:04.870Z,60
2024-01-11T13:46:00.654Z,61
2024-01-11T13:47:00.605Z,61
2024-01-11T13:48:00.908Z,61
2024-01-11T13:49:00.626Z,61
2024-01-11T13:50:03.653Z,61
2024-01-11T13:51:00.780Z,62
2024-01-11T13:52:01.902Z,62
2024-01-11T13:53:00.614Z,62
2024-01-11T13:54:00.715Z,62
2024-01-11T13:55:03.122Z,62
2024-01-11T13:56:00.700Z,62
2024-01-11T13:57:00.737Z,63
2024-01-11T13:58:00.936Z,63
2024-01-11T13:59:00.663Z,63
2024-01-11T14:00:03.804Z,63
2024-01-11T14:01:00.831Z,63
2024-01-11T14:02:00.973Z,64
2024-01-11T14:03:00.885Z,64
2024-01-11T14:04:00.794Z,64
2024-01-11T14:05:03.181Z,64
2024-01-11T14:06:00.968Z,65
2024-01-11T14:07:00.905Z,65
2024-01-11T14:08:01.086Z,65
2024-01-11T14:09:00.791Z,65
2024-01-11T14:10:04.043Z,65
2024-01-11T14:11:00.820Z,65
2024-01-11T14:12:00.908Z,65
2024-01-11T14:13:00.798Z,65
2024-01-11T14:14:00.861Z,65
2024-01-11T14:15:03.221Z,65